sensor_id;sensor_type;location;lat;lon;timestamp;P1;durP1;ratioP1;P2;durP2;ratioP2
15944;SDS011;30172;48.832;8.732;2023-09-19T00:00:03;3.85;;;1.17;;
15944;SDS011;30172;48.832;8.732;2023-09-19T00:02:31;2.75;;;1.33;;
15944;SDS011;30172;48.832;8.732;2023-09-19T00:04:58;2.90;;;1.20;;
15944;SDS011;30172;48.832;8.732;2023-09-19T00:07:23;1.27;;;0.98;;
15944;SDS011;30172;48.832;8.732;2023-09-19T00:09:48;1.92;;;1.00;;
15944;SDS011;30172;48.832;8.732;2023-09-19T00:12:13;1.77;;;1.23;;
15944;SDS011;30172;48.832;8.732;2023-09-19T00:14:39;1.55;;;0.80;;
15944;SDS011;30172;48.832;8.732;2023-09-19T00:17:05;1.45;;;1.35;;
15944;SDS011;30172;48.832;8.732;2023-09-19T00:19:33;2.28;;;0.95;;
15944;SDS011;30172;48.832;8.732;2023-09-19T00:21:59;3.80;;;1.13;;
15944;SDS011;30172;48.832;8.732;2023-09-19T00:24:24;1.70;;;1.10;;
15944;SDS011;30172;48.832;8.732;2023-09-19T00:26:49;1.98;;;0.98;;
15944;SDS011;30172;48.832;8.732;2023-09-19T00:29:15;3.20;;;1.08;;
15944;SDS011;30172;48.832;8.732;2023-09-19T00:31:44;3.42;;;1.27;;
15944;SDS011;30172;48.832;8.732;2023-09-19T00:34:09;2.88;;;1.30;;
15944;SDS011;30172;48.832;8.732;2023-09-19T00:36:36;2.60;;;1.02;;
15944;SDS011;30172;48.832;8.732;2023-09-19T00:39:03;2.38;;;0.98;;
15944;SDS011;30172;48.832;8.732;2023-09-19T00:41:30;2.17;;;1.20;;
15944;SDS011;30172;48.832;8.732;2023-09-19T00:43:56;2.35;;;1.00;;
15944;SDS011;30172;48.832;8.732;2023-09-19T00:46:21;2.90;;;1.00;;
15944;SDS011;30172;48.832;8.732;2023-09-19T00:48:47;2.08;;;1.13;;
15944;SDS011;30172;48.832;8.732;2023-09-19T00:51:12;3.78;;;1.40;;
15944;SDS011;30172;48.832;8.732;2023-09-19T00:53:44;2.88;;;1.23;;
15944;SDS011;30172;48.832;8.732;2023-09-19T00:56:11;1.90;;;1.02;;
15944;SDS011;30172;48.832;8.732;2023-09-19T00:58:37;1.70;;;1.10;;
15944;SDS011;30172;48.832;8.732;2023-09-19T01:01:03;1.40;;;1.13;;
15944;SDS011;30172;48.832;8.732;2023-09-19T01:03:31;3.00;;;1.48;;
15944;SDS011;30172;48.832;8.732;2023-09-19T01:06:01;2.10;;;1.20;;
15944;SDS011;30172;48.832;8.732;2023-09-19T01:08:27;2.75;;;1.10;;
15944;SDS011;30172;48.832;8.732;2023-09-19T01:11:05;2.60;;;1.50;;
15944;SDS011;30172;48.832;8.732;2023-09-19T01:13:40;2.45;;;1.17;;
15944;SDS011;30172;48.832;8.732;2023-09-19T01:18:54;3.65;;;1.48;;
15944;SDS011;30172;48.832;8.732;2023-09-19T01:24:07;2.67;;;1.30;;
15944;SDS011;30172;48.832;8.732;2023-09-19T01:27:14;2.65;;;1.27;;
15944;SDS011;30172;48.832;8.732;2023-09-19T01:29:51;1.50;;;1.40;;
15944;SDS011;30172;48.832;8.732;2023-09-19T01:32:17;2.22;;;1.25;;
15944;SDS011;30172;48.832;8.732;2023-09-19T01:34:54;1.50;;;1.33;;
15944;SDS011;30172;48.832;8.732;2023-09-19T01:37:22;1.88;;;1.13;;
15944;SDS011;30172;48.832;8.732;2023-09-19T01:39:53;1.85;;;1.55;;
15944;SDS011;30172;48.832;8.732;2023-09-19T01:47:54;1.55;;;1.00;;
15944;SDS011;30172;48.832;8.732;2023-09-19T01:53:04;4.72;;;1.50;;
15944;SDS011;30172;48.832;8.732;2023-09-19T01:55:30;1.77;;;1.20;;
15944;SDS011;30172;48.832;8.732;2023-09-19T01:58:15;1.98;;;1.20;;
15944;SDS011;30172;48.832;8.732;2023-09-19T02:00:44;1.73;;;1.27;;
15944;SDS011;30172;48.832;8.732;2023-09-19T02:03:11;1.88;;;1.30;;
15944;SDS011;30172;48.832;8.732;2023-09-19T02:05:37;3.08;;;1.35;;
15944;SDS011;30172;48.832;8.732;2023-09-19T02:08:04;2.53;;;1.40;;
15944;SDS011;30172;48.832;8.732;2023-09-19T02:10:29;1.75;;;1.23;;
15944;SDS011;30172;48.832;8.732;2023-09-19T02:12:54;1.90;;;1.30;;
15944;SDS011;30172;48.832;8.732;2023-09-19T02:15:20;4.00;;;1.63;;
15944;SDS011;30172;48.832;8.732;2023-09-19T02:17:45;1.52;;;1.20;;
15944;SDS011;30172;48.832;8.732;2023-09-19T02:20:11;1.63;;;1.40;;
15944;SDS011;30172;48.832;8.732;2023-09-19T02:22:39;4.18;;;1.20;;
15944;SDS011;30172;48.832;8.732;2023-09-19T02:25:09;2.35;;;1.40;;
15944;SDS011;30172;48.832;8.732;2023-09-19T02:27:34;1.75;;;1.23;;
15944;SDS011;30172;48.832;8.732;2023-09-19T02:30:00;2.33;;;1.17;;
15944;SDS011;30172;48.832;8.732;2023-09-19T02:32:29;1.15;;;1.05;;
15944;SDS011;30172;48.832;8.732;2023-09-19T02:34:56;2.05;;;1.40;;
15944;SDS011;30172;48.832;8.732;2023-09-19T02:37:22;1.95;;;1.15;;
15944;SDS011;30172;48.832;8.732;2023-09-19T02:39:48;1.77;;;1.20;;
15944;SDS011;30172;48.832;8.732;2023-09-19T02:42:13;2.13;;;1.55;;
15944;SDS011;30172;48.832;8.732;2023-09-19T02:44:38;1.20;;;1.10;;
15944;SDS011;30172;48.832;8.732;2023-09-19T02:47:05;1.75;;;1.30;;
15944;SDS011;30172;48.832;8.732;2023-09-19T02:49:30;1.70;;;1.10;;
15944;SDS011;30172;48.832;8.732;2023-09-19T02:51:55;1.55;;;1.38;;
15944;SDS011;30172;48.832;8.732;2023-09-19T02:54:23;1.25;;;1.05;;
15944;SDS011;30172;48.832;8.732;2023-09-19T02:56:49;3.47;;;1.35;;
15944;SDS011;30172;48.832;8.732;2023-09-19T02:59:14;2.08;;;1.45;;
15944;SDS011;30172;48.832;8.732;2023-09-19T03:01:39;2.95;;;1.40;;
15944;SDS011;30172;48.832;8.732;2023-09-19T03:04:08;2.38;;;1.40;;
15944;SDS011;30172;48.832;8.732;2023-09-19T03:06:36;2.13;;;1.52;;
15944;SDS011;30172;48.832;8.732;2023-09-19T03:09:01;1.50;;;1.40;;
15944;SDS011;30172;48.832;8.732;2023-09-19T03:11:31;2.88;;;1.40;;
15944;SDS011;30172;48.832;8.732;2023-09-19T03:13:56;3.95;;;1.52;;
15944;SDS011;30172;48.832;8.732;2023-09-19T03:16:21;2.05;;;1.42;;
15944;SDS011;30172;48.832;8.732;2023-09-19T03:18:47;2.17;;;1.20;;
15944;SDS011;30172;48.832;8.732;2023-09-19T03:21:13;2.78;;;1.60;;
15944;SDS011;30172;48.832;8.732;2023-09-19T03:23:42;1.48;;;1.20;;
15944;SDS011;30172;48.832;8.732;2023-09-19T03:26:10;2.22;;;1.40;;
15944;SDS011;30172;48.832;8.732;2023-09-19T03:28:37;1.48;;;1.38;;
15944;SDS011;30172;48.832;8.732;2023-09-19T03:31:03;3.55;;;1.35;;
15944;SDS011;30172;48.832;8.732;2023-09-19T03:33:30;4.47;;;1.80;;
15944;SDS011;30172;48.832;8.732;2023-09-19T03:35:58;2.28;;;1.40;;
15944;SDS011;30172;48.832;8.732;2023-09-19T03:38:25;2.63;;;1.45;;
15944;SDS011;30172;48.832;8.732;2023-09-19T03:40:51;1.95;;;1.48;;
15944;SDS011;30172;48.832;8.732;2023-09-19T03:43:16;2.75;;;1.20;;
15944;SDS011;30172;48.832;8.732;2023-09-19T03:45:42;2.58;;;1.25;;
15944;SDS011;30172;48.832;8.732;2023-09-19T03:48:08;1.88;;;1.30;;
15944;SDS011;30172;48.832;8.732;2023-09-19T03:50:36;2.03;;;1.27;;
15944;SDS011;30172;48.832;8.732;2023-09-19T03:53:02;2.03;;;1.38;;
15944;SDS011;30172;48.832;8.732;2023-09-19T03:55:27;2.00;;;1.20;;
15944;SDS011;30172;48.832;8.732;2023-09-19T03:57:53;2.65;;;1.55;;
15944;SDS011;30172;48.832;8.732;2023-09-19T04:00:18;3.13;;;1.40;;
15944;SDS011;30172;48.832;8.732;2023-09-19T04:02:47;3.67;;;1.52;;
15944;SDS011;30172;48.832;8.732;2023-09-19T04:05:12;2.60;;;1.20;;
15944;SDS011;30172;48.832;8.732;2023-09-19T04:07:38;1.92;;;1.17;;
15944;SDS011;30172;48.832;8.732;2023-09-19T04:10:04;1.20;;;0.90;;
15944;SDS011;30172;48.832;8.732;2023-09-19T04:12:29;1.13;;;0.98;;
15944;SDS011;30172;48.832;8.732;2023-09-19T04:14:55;3.08;;;1.40;;
15944;SDS011;30172;48.832;8.732;2023-09-19T04:17:20;1.75;;;1.00;;
15944;SDS011;30172;48.832;8.732;2023-09-19T04:19:45;3.22;;;1.30;;
15944;SDS011;30172;48.832;8.732;2023-09-19T04:22:11;2.75;;;1.42;;
15944;SDS011;30172;48.832;8.732;2023-09-19T04:24:37;2.17;;;1.25;;
15944;SDS011;30172;48.832;8.732;2023-09-19T04:27:03;3.08;;;1.52;;
15944;SDS011;30172;48.832;8.732;2023-09-19T04:29:29;1.83;;;1.30;;
15944;SDS011;30172;48.832;8.732;2023-09-19T04:31:54;1.45;;;1.30;;
15944;SDS011;30172;48.832;8.732;2023-09-19T04:34:20;1.92;;;1.25;;
15944;SDS011;30172;48.832;8.732;2023-09-19T04:36:45;5.97;;;1.60;;
15944;SDS011;30172;48.832;8.732;2023-09-19T04:39:10;1.52;;;1.25;;
15944;SDS011;30172;48.832;8.732;2023-09-19T04:41:37;2.80;;;1.38;;
15944;SDS011;30172;48.832;8.732;2023-09-19T04:44:05;2.65;;;1.63;;
15944;SDS011;30172;48.832;8.732;2023-09-19T04:46:30;1.55;;;1.20;;
15944;SDS011;30172;48.832;8.732;2023-09-19T04:48:55;2.25;;;1.50;;
15944;SDS011;30172;48.832;8.732;2023-09-19T04:51:21;1.80;;;1.10;;
15944;SDS011;30172;48.832;8.732;2023-09-19T04:53:46;1.50;;;1.20;;
15944;SDS011;30172;48.832;8.732;2023-09-19T04:56:12;1.73;;;1.27;;
15944;SDS011;30172;48.832;8.732;2023-09-19T04:58:38;2.50;;;1.60;;
15944;SDS011;30172;48.832;8.732;2023-09-19T05:01:03;1.13;;;1.02;;
15944;SDS011;30172;48.832;8.732;2023-09-19T05:03:29;2.40;;;1.50;;
15944;SDS011;30172;48.832;8.732;2023-09-19T05:05:54;2.75;;;1.13;;
15944;SDS011;30172;48.832;8.732;2023-09-19T05:08:20;2.25;;;1.55;;
15944;SDS011;30172;48.832;8.732;2023-09-19T05:10:47;2.10;;;1.40;;
15944;SDS011;30172;48.832;8.732;2023-09-19T05:13:12;2.65;;;1.60;;
15944;SDS011;30172;48.832;8.732;2023-09-19T05:15:38;3.75;;;1.50;;
15944;SDS011;30172;48.832;8.732;2023-09-19T05:18:04;1.98;;;1.40;;
15944;SDS011;30172;48.832;8.732;2023-09-19T05:20:31;2.58;;;1.55;;
15944;SDS011;30172;48.832;8.732;2023-09-19T05:23:03;3.28;;;1.75;;
15944;SDS011;30172;48.832;8.732;2023-09-19T05:25:32;2.63;;;1.70;;
15944;SDS011;30172;48.832;8.732;2023-09-19T05:28:02;4.40;;;1.83;;
15944;SDS011;30172;48.832;8.732;2023-09-19T05:30:30;3.47;;;2.05;;
15944;SDS011;30172;48.832;8.732;2023-09-19T05:32:56;3.25;;;2.15;;
15944;SDS011;30172;48.832;8.732;2023-09-19T05:35:22;3.90;;;2.15;;
15944;SDS011;30172;48.832;8.732;2023-09-19T05:37:48;3.40;;;1.70;;
15944;SDS011;30172;48.832;8.732;2023-09-19T05:40:16;2.50;;;1.63;;
15944;SDS011;30172;48.832;8.732;2023-09-19T05:42:44;3.15;;;1.92;;
15944;SDS011;30172;48.832;8.732;2023-09-19T05:45:10;6.85;;;2.40;;
15944;SDS011;30172;48.832;8.732;2023-09-19T05:47:41;4.15;;;2.25;;
15944;SDS011;30172;48.832;8.732;2023-09-19T05:50:08;3.47;;;2.10;;
15944;SDS011;30172;48.832;8.732;2023-09-19T05:52:34;3.00;;;2.20;;
15944;SDS011;30172;48.832;8.732;2023-09-19T05:55:00;6.03;;;2.17;;
15944;SDS011;30172;48.832;8.732;2023-09-19T05:57:25;3.15;;;2.00;;
15944;SDS011;30172;48.832;8.732;2023-09-19T05:59:50;4.63;;;1.73;;
15944;SDS011;30172;48.832;8.732;2023-09-19T06:02:16;4.50;;;2.03;;
15944;SDS011;30172;48.832;8.732;2023-09-19T06:04:41;3.05;;;1.90;;
15944;SDS011;30172;48.832;8.732;2023-09-19T06:07:06;3.78;;;1.88;;
15944;SDS011;30172;48.832;8.732;2023-09-19T06:09:32;4.10;;;2.05;;
15944;SDS011;30172;48.832;8.732;2023-09-19T06:11:57;5.25;;;2.03;;
15944;SDS011;30172;48.832;8.732;2023-09-19T06:14:23;5.70;;;2.00;;
15944;SDS011;30172;48.832;8.732;2023-09-19T06:16:49;4.30;;;1.90;;
15944;SDS011;30172;48.832;8.732;2023-09-19T06:19:15;4.60;;;2.15;;
15944;SDS011;30172;48.832;8.732;2023-09-19T06:21:40;4.20;;;2.25;;
15944;SDS011;30172;48.832;8.732;2023-09-19T06:24:06;11.95;;;2.67;;
15944;SDS011;30172;48.832;8.732;2023-09-19T06:26:31;3.75;;;1.73;;
15944;SDS011;30172;48.832;8.732;2023-09-19T06:28:57;3.42;;;1.90;;
15944;SDS011;30172;48.832;8.732;2023-09-19T06:31:26;3.47;;;1.58;;
15944;SDS011;30172;48.832;8.732;2023-09-19T06:33:51;3.13;;;2.25;;
15944;SDS011;30172;48.832;8.732;2023-09-19T06:36:17;4.82;;;2.10;;
15944;SDS011;30172;48.832;8.732;2023-09-19T06:38:44;4.45;;;1.80;;
15944;SDS011;30172;48.832;8.732;2023-09-19T06:41:09;4.25;;;2.22;;
15944;SDS011;30172;48.832;8.732;2023-09-19T06:43:35;3.53;;;1.55;;
15944;SDS011;30172;48.832;8.732;2023-09-19T06:46:01;3.50;;;2.13;;
15944;SDS011;30172;48.832;8.732;2023-09-19T06:48:27;6.00;;;2.20;;
15944;SDS011;30172;48.832;8.732;2023-09-19T06:50:54;2.90;;;1.98;;
15944;SDS011;30172;48.832;8.732;2023-09-19T06:53:20;3.53;;;1.50;;
15944;SDS011;30172;48.832;8.732;2023-09-19T06:55:45;3.65;;;1.85;;
15944;SDS011;30172;48.832;8.732;2023-09-19T06:58:12;3.97;;;1.73;;
15944;SDS011;30172;48.832;8.732;2023-09-19T07:00:38;3.05;;;1.60;;
15944;SDS011;30172;48.832;8.732;2023-09-19T07:05:33;3.47;;;1.60;;
15944;SDS011;30172;48.832;8.732;2023-09-19T07:08:02;5.95;;;1.60;;
15944;SDS011;30172;48.832;8.732;2023-09-19T07:10:28;2.80;;;1.58;;
15944;SDS011;30172;48.832;8.732;2023-09-19T07:12:55;4.00;;;1.67;;
15944;SDS011;30172;48.832;8.732;2023-09-19T07:15:20;3.83;;;1.83;;
15944;SDS011;30172;48.832;8.732;2023-09-19T07:17:47;4.60;;;1.70;;
15944;SDS011;30172;48.832;8.732;2023-09-19T07:20:13;2.63;;;1.50;;
15944;SDS011;30172;48.832;8.732;2023-09-19T07:22:41;3.65;;;1.50;;
15944;SDS011;30172;48.832;8.732;2023-09-19T07:25:06;3.05;;;1.60;;
15944;SDS011;30172;48.832;8.732;2023-09-19T07:27:32;2.17;;;1.52;;
15944;SDS011;30172;48.832;8.732;2023-09-19T07:29:57;2.45;;;1.55;;
15944;SDS011;30172;48.832;8.732;2023-09-19T07:32:23;2.05;;;1.42;;
15944;SDS011;30172;48.832;8.732;2023-09-19T07:34:49;7.38;;;1.92;;
15944;SDS011;30172;48.832;8.732;2023-09-19T07:37:14;3.92;;;1.85;;
15944;SDS011;30172;48.832;8.732;2023-09-19T07:39:40;3.75;;;1.50;;
15944;SDS011;30172;48.832;8.732;2023-09-19T07:42:06;2.45;;;1.58;;
15944;SDS011;30172;48.832;8.732;2023-09-19T07:44:32;3.28;;;1.70;;
15944;SDS011;30172;48.832;8.732;2023-09-19T07:46:57;5.00;;;1.73;;
15944;SDS011;30172;48.832;8.732;2023-09-19T07:49:23;3.25;;;1.48;;
15944;SDS011;30172;48.832;8.732;2023-09-19T07:51:48;2.75;;;1.55;;
15944;SDS011;30172;48.832;8.732;2023-09-19T07:54:14;1.98;;;1.35;;
15944;SDS011;30172;48.832;8.732;2023-09-19T07:56:39;4.35;;;2.53;;
15944;SDS011;30172;48.832;8.732;2023-09-19T07:59:05;3.88;;;1.45;;
15944;SDS011;30172;48.832;8.732;2023-09-19T08:01:31;2.30;;;1.58;;
15944;SDS011;30172;48.832;8.732;2023-09-19T08:03:57;4.50;;;1.63;;
15944;SDS011;30172;48.832;8.732;2023-09-19T08:06:23;2.78;;;1.30;;
15944;SDS011;30172;48.832;8.732;2023-09-19T08:08:52;1.88;;;1.30;;
15944;SDS011;30172;48.832;8.732;2023-09-19T08:11:18;2.47;;;1.20;;
15944;SDS011;30172;48.832;8.732;2023-09-19T08:13:49;1.95;;;1.65;;
15944;SDS011;30172;48.832;8.732;2023-09-19T08:16:15;1.88;;;1.27;;
15944;SDS011;30172;48.832;8.732;2023-09-19T08:18:41;2.28;;;1.23;;
15944;SDS011;30172;48.832;8.732;2023-09-19T08:21:06;1.77;;;1.20;;
15944;SDS011;30172;48.832;8.732;2023-09-19T08:23:36;1.65;;;1.27;;
15944;SDS011;30172;48.832;8.732;2023-09-19T08:26:03;2.88;;;1.50;;
15944;SDS011;30172;48.832;8.732;2023-09-19T08:28:31;3.08;;;1.40;;
15944;SDS011;30172;48.832;8.732;2023-09-19T08:31:01;2.33;;;1.60;;
15944;SDS011;30172;48.832;8.732;2023-09-19T08:33:29;1.98;;;1.42;;
15944;SDS011;30172;48.832;8.732;2023-09-19T08:35:55;2.70;;;1.50;;
15944;SDS011;30172;48.832;8.732;2023-09-19T08:38:21;2.58;;;1.48;;
15944;SDS011;30172;48.832;8.732;2023-09-19T08:40:46;3.00;;;1.48;;
15944;SDS011;30172;48.832;8.732;2023-09-19T08:52:25;3.35;;;1.40;;
15944;SDS011;30172;48.832;8.732;2023-09-19T08:54:57;2.45;;;1.27;;
15944;SDS011;30172;48.832;8.732;2023-09-19T08:57:26;3.70;;;1.42;;
15944;SDS011;30172;48.832;8.732;2023-09-19T08:59:54;1.80;;;1.20;;
15944;SDS011;30172;48.832;8.732;2023-09-19T09:02:20;1.73;;;1.20;;
15944;SDS011;30172;48.832;8.732;2023-09-19T09:04:46;2.00;;;1.50;;
15944;SDS011;30172;48.832;8.732;2023-09-19T09:07:13;2.33;;;1.45;;
15944;SDS011;30172;48.832;8.732;2023-09-19T09:09:39;2.03;;;1.20;;
15944;SDS011;30172;48.832;8.732;2023-09-19T09:12:11;3.10;;;1.40;;
15944;SDS011;30172;48.832;8.732;2023-09-19T09:14:38;2.25;;;1.33;;
15944;SDS011;30172;48.832;8.732;2023-09-19T09:17:10;2.60;;;1.30;;
15944;SDS011;30172;48.832;8.732;2023-09-19T09:19:35;3.30;;;1.17;;
15944;SDS011;30172;48.832;8.732;2023-09-19T09:22:09;3.15;;;1.50;;
15944;SDS011;30172;48.832;8.732;2023-09-19T09:24:35;2.55;;;1.23;;
15944;SDS011;30172;48.832;8.732;2023-09-19T09:27:06;2.03;;;1.10;;
15944;SDS011;30172;48.832;8.732;2023-09-19T09:29:42;2.08;;;1.38;;
15944;SDS011;30172;48.832;8.732;2023-09-19T09:34:45;2.53;;;1.30;;
15944;SDS011;30172;48.832;8.732;2023-09-19T09:37:14;1.90;;;1.38;;
15944;SDS011;30172;48.832;8.732;2023-09-19T09:39:45;2.50;;;1.60;;
15944;SDS011;30172;48.832;8.732;2023-09-19T09:42:35;2.65;;;1.73;;
15944;SDS011;30172;48.832;8.732;2023-09-19T09:45:23;1.58;;;1.05;;
15944;SDS011;30172;48.832;8.732;2023-09-19T09:47:58;2.40;;;1.40;;
15944;SDS011;30172;48.832;8.732;2023-09-19T09:50:32;2.65;;;1.50;;
15944;SDS011;30172;48.832;8.732;2023-09-19T09:53:23;2.88;;;1.60;;
15944;SDS011;30172;48.832;8.732;2023-09-19T09:55:56;2.47;;;1.35;;
15944;SDS011;30172;48.832;8.732;2023-09-19T10:01:19;4.30;;;1.50;;
15944;SDS011;30172;48.832;8.732;2023-09-19T10:03:45;4.55;;;1.70;;
15944;SDS011;30172;48.832;8.732;2023-09-19T10:06:16;2.15;;;1.10;;
15944;SDS011;30172;48.832;8.732;2023-09-19T10:09:04;3.28;;;1.10;;
15944;SDS011;30172;48.832;8.732;2023-09-19T10:14:21;2.47;;;1.23;;
15944;SDS011;30172;48.832;8.732;2023-09-19T10:16:50;2.08;;;1.27;;
15944;SDS011;30172;48.832;8.732;2023-09-19T10:19:29;1.80;;;1.50;;
15944;SDS011;30172;48.832;8.732;2023-09-19T10:22:14;4.47;;;1.30;;
15944;SDS011;30172;48.832;8.732;2023-09-19T10:24:45;3.30;;;1.25;;
15944;SDS011;30172;48.832;8.732;2023-09-19T10:27:11;2.38;;;1.50;;
15944;SDS011;30172;48.832;8.732;2023-09-19T10:29:38;4.13;;;1.00;;
15944;SDS011;30172;48.832;8.732;2023-09-19T10:32:04;3.20;;;1.40;;
15944;SDS011;30172;48.832;8.732;2023-09-19T10:34:32;3.13;;;1.20;;
15944;SDS011;30172;48.832;8.732;2023-09-19T10:36:59;2.60;;;1.42;;
15944;SDS011;30172;48.832;8.732;2023-09-19T10:39:30;1.75;;;1.23;;
15944;SDS011;30172;48.832;8.732;2023-09-19T10:41:57;2.13;;;1.20;;
15944;SDS011;30172;48.832;8.732;2023-09-19T10:44:30;3.25;;;1.33;;
15944;SDS011;30172;48.832;8.732;2023-09-19T10:46:57;5.65;;;1.70;;
15944;SDS011;30172;48.832;8.732;2023-09-19T10:49:22;4.20;;;1.45;;
15944;SDS011;30172;48.832;8.732;2023-09-19T10:51:50;2.33;;;1.40;;
15944;SDS011;30172;48.832;8.732;2023-09-19T10:54:19;2.33;;;1.67;;
15944;SDS011;30172;48.832;8.732;2023-09-19T10:56:48;3.28;;;1.23;;
15944;SDS011;30172;48.832;8.732;2023-09-19T10:59:16;4.00;;;1.40;;
15944;SDS011;30172;48.832;8.732;2023-09-19T11:15:02;2.55;;;1.45;;
15944;SDS011;30172;48.832;8.732;2023-09-19T11:17:39;4.28;;;1.40;;
15944;SDS011;30172;48.832;8.732;2023-09-19T11:30:31;2.95;;;1.48;;
15944;SDS011;30172;48.832;8.732;2023-09-19T11:36:01;3.15;;;1.92;;
15944;SDS011;30172;48.832;8.732;2023-09-19T11:43:44;3.45;;;1.20;;
15944;SDS011;30172;48.832;8.732;2023-09-19T11:46:11;2.72;;;1.20;;
15944;SDS011;30172;48.832;8.732;2023-09-19T11:48:38;2.47;;;1.20;;
15944;SDS011;30172;48.832;8.732;2023-09-19T11:51:09;3.08;;;1.33;;
15944;SDS011;30172;48.832;8.732;2023-09-19T11:53:47;2.45;;;1.40;;
15944;SDS011;30172;48.832;8.732;2023-09-19T11:56:16;2.80;;;1.30;;
15944;SDS011;30172;48.832;8.732;2023-09-19T11:58:43;1.95;;;1.40;;
15944;SDS011;30172;48.832;8.732;2023-09-19T12:01:11;4.30;;;1.15;;
15944;SDS011;30172;48.832;8.732;2023-09-19T12:03:41;1.65;;;1.10;;
15944;SDS011;30172;48.832;8.732;2023-09-19T12:06:11;2.38;;;1.10;;
15944;SDS011;30172;48.832;8.732;2023-09-19T12:08:39;2.00;;;1.42;;
15944;SDS011;30172;48.832;8.732;2023-09-19T12:11:07;3.58;;;1.35;;
15944;SDS011;30172;48.832;8.732;2023-09-19T12:13:40;2.88;;;1.20;;
15944;SDS011;30172;48.832;8.732;2023-09-19T12:16:11;1.70;;;1.02;;
15944;SDS011;30172;48.832;8.732;2023-09-19T12:18:40;2.60;;;1.13;;
15944;SDS011;30172;48.832;8.732;2023-09-19T12:21:20;1.98;;;1.27;;
15944;SDS011;30172;48.832;8.732;2023-09-19T12:24:11;2.47;;;1.13;;
15944;SDS011;30172;48.832;8.732;2023-09-19T12:26:39;2.72;;;0.93;;
15944;SDS011;30172;48.832;8.732;2023-09-19T12:29:26;1.30;;;1.10;;
15944;SDS011;30172;48.832;8.732;2023-09-19T12:34:26;1.92;;;1.10;;
15944;SDS011;30172;48.832;8.732;2023-09-19T12:39:41;3.90;;;1.35;;
15944;SDS011;30172;48.832;8.732;2023-09-19T12:42:09;3.92;;;1.30;;
15944;SDS011;30172;48.832;8.732;2023-09-19T12:44:36;2.42;;;1.27;;
15944;SDS011;30172;48.832;8.732;2023-09-19T12:47:15;2.60;;;1.20;;
15944;SDS011;30172;48.832;8.732;2023-09-19T12:52:38;3.03;;;1.15;;
15944;SDS011;30172;48.832;8.732;2023-09-19T12:55:20;3.40;;;1.20;;
15944;SDS011;30172;48.832;8.732;2023-09-19T12:57:56;1.63;;;1.35;;
15944;SDS011;30172;48.832;8.732;2023-09-19T13:00:34;2.70;;;1.10;;
15944;SDS011;30172;48.832;8.732;2023-09-19T13:03:11;2.00;;;1.13;;
15944;SDS011;30172;48.832;8.732;2023-09-19T13:05:50;3.15;;;1.48;;
15944;SDS011;30172;48.832;8.732;2023-09-19T13:08:29;2.22;;;1.42;;
15944;SDS011;30172;48.832;8.732;2023-09-19T13:11:14;1.63;;;1.25;;
15944;SDS011;30172;48.832;8.732;2023-09-19T13:16:10;1.45;;;1.10;;
15944;SDS011;30172;48.832;8.732;2023-09-19T13:18:49;3.42;;;1.45;;
15944;SDS011;30172;48.832;8.732;2023-09-19T13:21:28;2.10;;;1.08;;
15944;SDS011;30172;48.832;8.732;2023-09-19T13:24:17;3.20;;;1.30;;
15944;SDS011;30172;48.832;8.732;2023-09-19T13:26:51;1.80;;;1.23;;
15944;SDS011;30172;48.832;8.732;2023-09-19T13:29:16;2.97;;;1.10;;
15944;SDS011;30172;48.832;8.732;2023-09-19T13:31:52;1.40;;;1.10;;
15944;SDS011;30172;48.832;8.732;2023-09-19T13:34:18;1.63;;;1.35;;
15944;SDS011;30172;48.832;8.732;2023-09-19T13:36:44;3.13;;;1.27;;
15944;SDS011;30172;48.832;8.732;2023-09-19T13:39:12;2.20;;;0.90;;
15944;SDS011;30172;48.832;8.732;2023-09-19T13:41:38;1.85;;;1.15;;
15944;SDS011;30172;48.832;8.732;2023-09-19T13:44:03;2.92;;;1.23;;
15944;SDS011;30172;48.832;8.732;2023-09-19T13:46:29;2.40;;;1.20;;
15944;SDS011;30172;48.832;8.732;2023-09-19T13:48:58;1.60;;;1.30;;
15944;SDS011;30172;48.832;8.732;2023-09-19T13:51:24;1.83;;;1.20;;
15944;SDS011;30172;48.832;8.732;2023-09-19T13:53:50;1.65;;;1.00;;
15944;SDS011;30172;48.832;8.732;2023-09-19T13:56:16;2.53;;;1.08;;
15944;SDS011;30172;48.832;8.732;2023-09-19T13:58:41;1.88;;;1.10;;
15944;SDS011;30172;48.832;8.732;2023-09-19T14:01:07;1.75;;;1.20;;
15944;SDS011;30172;48.832;8.732;2023-09-19T14:03:37;2.65;;;1.20;;
15944;SDS011;30172;48.832;8.732;2023-09-19T14:06:02;1.90;;;1.10;;
15944;SDS011;30172;48.832;8.732;2023-09-19T14:08:28;1.00;;;0.88;;
15944;SDS011;30172;48.832;8.732;2023-09-19T14:10:53;1.60;;;1.30;;
15944;SDS011;30172;48.832;8.732;2023-09-19T14:13:19;1.88;;;0.98;;
15944;SDS011;30172;48.832;8.732;2023-09-19T14:15:45;2.65;;;1.17;;
15944;SDS011;30172;48.832;8.732;2023-09-19T14:18:10;2.80;;;1.13;;
15944;SDS011;30172;48.832;8.732;2023-09-19T14:20:37;1.88;;;1.08;;
15944;SDS011;30172;48.832;8.732;2023-09-19T14:23:04;0.77;;;0.75;;
15944;SDS011;30172;48.832;8.732;2023-09-19T14:25:29;1.67;;;0.93;;
15944;SDS011;30172;48.832;8.732;2023-09-19T14:27:55;0.90;;;0.88;;
15944;SDS011;30172;48.832;8.732;2023-09-19T14:30:20;1.15;;;0.80;;
15944;SDS011;30172;48.832;8.732;2023-09-19T14:32:46;2.83;;;1.30;;
15944;SDS011;30172;48.832;8.732;2023-09-19T14:35:11;1.73;;;1.00;;
15944;SDS011;30172;48.832;8.732;2023-09-19T14:37:38;1.20;;;1.10;;
15944;SDS011;30172;48.832;8.732;2023-09-19T14:40:04;1.83;;;0.95;;
15944;SDS011;30172;48.832;8.732;2023-09-19T14:42:33;2.90;;;1.13;;
15944;SDS011;30172;48.832;8.732;2023-09-19T14:45:00;2.67;;;0.82;;
15944;SDS011;30172;48.832;8.732;2023-09-19T14:47:26;2.13;;;1.08;;
15944;SDS011;30172;48.832;8.732;2023-09-19T14:49:53;2.15;;;1.05;;
15944;SDS011;30172;48.832;8.732;2023-09-19T14:52:18;1.45;;;0.88;;
15944;SDS011;30172;48.832;8.732;2023-09-19T14:54:43;2.35;;;1.00;;
15944;SDS011;30172;48.832;8.732;2023-09-19T14:57:09;2.75;;;0.90;;
15944;SDS011;30172;48.832;8.732;2023-09-19T14:59:35;2.25;;;1.00;;
15944;SDS011;30172;48.832;8.732;2023-09-19T15:02:02;1.40;;;0.95;;
15944;SDS011;30172;48.832;8.732;2023-09-19T15:04:28;1.58;;;0.93;;
15944;SDS011;30172;48.832;8.732;2023-09-19T15:06:54;1.40;;;0.80;;
15944;SDS011;30172;48.832;8.732;2023-09-19T15:09:20;2.80;;;1.02;;
15944;SDS011;30172;48.832;8.732;2023-09-19T15:11:54;1.38;;;0.80;;
15944;SDS011;30172;48.832;8.732;2023-09-19T15:14:23;2.25;;;1.02;;
15944;SDS011;30172;48.832;8.732;2023-09-19T15:16:50;1.60;;;1.02;;
15944;SDS011;30172;48.832;8.732;2023-09-19T15:19:15;1.35;;;1.00;;
15944;SDS011;30172;48.832;8.732;2023-09-19T15:21:41;1.60;;;0.93;;
15944;SDS011;30172;48.832;8.732;2023-09-19T15:24:07;2.20;;;0.90;;
15944;SDS011;30172;48.832;8.732;2023-09-19T15:26:36;1.98;;;1.10;;
15944;SDS011;30172;48.832;8.732;2023-09-19T15:29:05;1.23;;;1.00;;
15944;SDS011;30172;48.832;8.732;2023-09-19T15:31:31;2.72;;;1.02;;
15944;SDS011;30172;48.832;8.732;2023-09-19T15:33:57;1.05;;;0.93;;
15944;SDS011;30172;48.832;8.732;2023-09-19T15:36:22;2.28;;;1.08;;
15944;SDS011;30172;48.832;8.732;2023-09-19T15:41:30;1.35;;;0.90;;
15944;SDS011;30172;48.832;8.732;2023-09-19T15:43:57;2.50;;;0.90;;
15944;SDS011;30172;48.832;8.732;2023-09-19T15:46:24;1.98;;;0.80;;
15944;SDS011;30172;48.832;8.732;2023-09-19T15:48:51;1.65;;;0.85;;
15944;SDS011;30172;48.832;8.732;2023-09-19T15:51:17;0.82;;;0.80;;
15944;SDS011;30172;48.832;8.732;2023-09-19T15:53:50;1.05;;;0.90;;
15944;SDS011;30172;48.832;8.732;2023-09-19T15:56:16;1.52;;;0.80;;
15944;SDS011;30172;48.832;8.732;2023-09-19T15:58:46;4.05;;;0.90;;
15944;SDS011;30172;48.832;8.732;2023-09-19T16:01:12;0.98;;;0.77;;
15944;SDS011;30172;48.832;8.732;2023-09-19T16:03:38;3.20;;;1.00;;
15944;SDS011;30172;48.832;8.732;2023-09-19T16:06:08;1.67;;;1.00;;
15944;SDS011;30172;48.832;8.732;2023-09-19T16:08:35;1.30;;;1.02;;
15944;SDS011;30172;48.832;8.732;2023-09-19T16:11:01;2.08;;;1.02;;